Terminal Aerodrome Forecast
Issued by NWS Charleston, WV

Current Version | Previous Version | Graphics & Text | Print | Product List | Glossary On
Versions: 1 2 3 4 5 6 7 8 9 10 11 12 13 14 15 16 17 18 19 20 21 22 23 24 25 26 27 28 29 30 31 32 33
000
FTUS41 KRLX 151300 AAE
TAFEKN
TAF AMD
KEKN 151300Z 1513/1612 VRB03KT 3SM -RA BR BKN005 OVC020
     FM151400 28003KT P6SM VCSH BKN020
     FM151600 31004KT P6SM VCSH BKN025
     FM152000 32005KT P6SM SCT035
     FM160400 00000KT 4SM BR FEW035
     FM160600 00000KT 1/4SM FG VV001=

USA.gov is the U.S. government's official web portal to all federal, state and local government web resources and services.